Time;durP1;ratioP1;P1;durP2;ratioP2;P2;SDS_P1;SDS_P2;PMS_P1;PMS_P2;Temp;Humidity;BMP_temperature;BMP_pressure;BME280_temperature;BME280_humidity;BME280_pressure;Samples;Min_cycle;Max_cycle;Signal;HPM_P1;HPM_P2
2022/01/18 00:00:28;;;;;;;2.45;1.05;;;22.60;53.80;;;;;;5078881;28;20041;-71
2022/01/18 00:02:57;;;;;;;1.40;0.98;;;22.40;51.70;;;;;;5078885;28;20036;-71
2022/01/18 00:05:23;;;;;;;4.68;1.30;;;22.50;52.40;;;;;;5078449;28;20025;-72
2022/01/18 00:07:49;;;;;;;2.08;1.63;;;22.40;50.10;;;;;;5078894;28;20080;-72
2022/01/18 00:10:16;;;;;;;5.65;1.50;;;22.50;54.00;;;;;;5078792;28;20104;-72
2022/01/18 00:12:55;;;;;;;4.55;1.42;;;22.60;53.50;;;;;;5078933;28;20048;-71
2022/01/18 00:23:21;;;;;;;2.20;1.25;;;22.60;53.90;;;;;;5078551;28;20041;-71
2022/01/18 00:25:51;;;;;;;2.55;1.40;;;22.50;50.90;;;;;;5078463;28;20052;-72
2022/01/18 00:28:18;;;;;;;9.27;2.00;;;22.40;53.60;;;;;;5078521;28;20053;-71
2022/01/18 00:36:05;;;;;;;3.58;1.48;;;22.30;51.90;;;;;;5078396;28;20047;-72
2022/01/18 00:38:44;;;;;;;2.60;1.17;;;22.10;52.00;;;;;;5078081;28;20119;-71
2022/01/18 00:41:10;;;;;;;2.80;1.77;;;22.10;52.00;;;;;;5078223;28;20037;-71
2022/01/18 00:43:39;;;;;;;1.40;0.82;;;22.30;53.40;;;;;;5078116;28;20037;-72
2022/01/18 00:46:06;;;;;;;3.30;1.65;;;22.20;51.90;;;;;;5078419;28;20104;-72
2022/01/18 00:48:34;;;;;;;3.53;1.60;;;22.20;51.00;;;;;;5078190;28;20079;-72
2022/01/18 00:51:02;;;;;;;2.58;1.05;;;22.20;53.30;;;;;;5077942;28;20068;-72
2022/01/18 00:53:31;;;;;;;4.18;1.75;;;22.10;52.40;;;;;;5078063;28;20051;-71
2022/01/18 00:56:19;;;;;;;1.85;1.05;;;22.10;48.00;;;;;;5077938;28;20386;-72
2022/01/18 00:58:47;;;;;;;2.83;0.90;;;22.00;53.30;;;;;;5077989;28;20124;-71
2022/01/18 01:01:14;;;;;;;2.95;1.55;;;22.20;53.90;;;;;;5077669;28;20047;-71
2022/01/18 01:03:41;;;;;;;3.67;1.60;;;22.30;51.10;;;;;;5077617;28;20044;-72
2022/01/18 01:06:08;;;;;;;2.33;1.55;;;22.20;53.30;;;;;;5077659;28;20139;-72
2022/01/18 01:08:35;;;;;;;1.27;0.98;;;22.30;48.80;;;;;;5077885;28;20210;-71
2022/01/18 01:11:06;;;;;;;2.88;1.42;;;22.10;54.70;;;;;;5077322;28;20047;-72
2022/01/18 01:13:35;;;;;;;1.15;0.93;;;22.30;53.00;;;;;;5077817;28;20067;-72
2022/01/18 01:19:42;;;;;;;1.27;0.85;;;22.40;54.30;;;;;;5076477;28;20044;-72
2022/01/18 01:33:01;;;;;;;2.72;1.55;;;22.30;53.00;;;;;;5087936;28;20049;-72
2022/01/18 01:45:26;;;;;;;2.83;1.05;;;22.10;54.10;;;;;;5096732;28;20041;-72
2022/01/18 01:47:56;;;;;;;1.95;0.95;;;22.10;53.90;;;;;;5096964;28;20044;-72
2022/01/18 01:50:24;;;;;;;5.10;1.40;;;22.10;52.00;;;;;;5097007;28;20032;-72
2022/01/18 01:52:54;;;;;;;7.35;2.00;;;22.10;53.70;;;;;;5096324;28;20048;-71
2022/01/18 01:55:21;;;;;;;1.92;1.08;;;22.10;53.90;;;;;;5097073;28;20108;-72
2022/01/18 01:57:47;;;;;;;3.55;1.98;;;22.00;51.60;;;;;;5096963;28;20064;-71
2022/01/18 02:00:17;;;;;;;1.75;1.10;;;22.10;51.30;;;;;;5096762;28;20047;-71
2022/01/18 02:02:45;;;;;;;1.95;1.15;;;22.20;49.20;;;;;;5096718;28;20040;-71
2022/01/18 02:05:12;;;;;;;4.18;1.02;;;22.00;49.80;;;;;;5096947;28;20466;-72
2022/01/18 02:07:38;;;;;;;0.77;0.77;;;22.10;52.70;;;;;;5096719;28;20063;-72
2022/01/18 02:10:07;;;;;;;3.35;1.73;;;22.20;53.60;;;;;;5096726;28;20048;-72
2022/01/18 02:12:34;;;;;;;0.85;0.85;;;22.20;53.60;;;;;;5096771;28;20101;-72
2022/01/18 02:15:10;;;;;;;3.05;1.35;;;22.20;51.30;;;;;;5096624;28;20045;-72
2022/01/18 02:23:23;;;;;;;3.70;1.60;;;22.20;49.60;;;;;;5096735;28;20088;-72
2022/01/18 02:25:50;;;;;;;2.13;1.15;;;22.00;51.30;;;;;;5096761;28;20108;-72
2022/01/18 02:28:17;;;;;;;8.45;1.73;;;22.00;51.50;;;;;;5096312;28;20123;-72
2022/01/18 02:30:44;;;;;;;3.13;0.73;;;22.10;52.40;;;;;;5096619;28;20033;-72
2022/01/18 02:33:11;;;;;;;1.75;0.57;;;22.10;51.40;;;;;;5096190;28;20107;-72
2022/01/18 02:35:37;;;;;;;7.57;1.70;;;22.00;53.90;;;;;;5096484;28;20040;-71
2022/01/18 02:38:04;;;;;;;2.83;1.73;;;22.10;51.00;;;;;;5096419;28;20040;-72
2022/01/18 02:40:32;;;;;;;5.82;1.40;;;22.10;53.40;;;;;;5096405;28;20044;-71
2022/01/18 02:43:46;;;;;;;3.42;1.38;;;22.10;53.70;;;;;;5096058;28;20035;-72
2022/01/18 02:45:47;;;;;;;5.40;1.60;;;22.00;53.90;;;;;;5096394;28;20466;-72
2022/01/18 02:48:13;;;;;;;1.90;1.10;;;22.00;52.10;;;;;;5096511;28;20044;-71
2022/01/18 02:50:40;;;;;;;3.88;1.90;;;22.10;52.10;;;;;;5096181;28;20064;-72
2022/01/18 02:53:07;;;;;;;5.50;1.38;;;22.10;53.20;;;;;;5096256;28;20089;-71
2022/01/18 02:55:33;;;;;;;2.60;1.00;;;22.10;51.00;;;;;;5096272;28;20040;-72
2022/01/18 02:58:05;;;;;;;1.85;0.95;;;22.00;51.20;;;;;;5096272;28;20044;-71
2022/01/18 03:00:43;;;;;;;4.25;1.10;;;22.10;52.20;;;;;;5096363;28;20039;-71
2022/01/18 03:03:13;;;;;;;4.13;1.30;;;22.00;51.50;;;;;;5095970;28;20056;-71
2022/01/18 03:05:41;;;;;;;6.65;1.17;;;22.10;49.10;;;;;;5096315;28;20044;-71
2022/01/18 03:08:09;;;;;;;1.83;1.17;;;22.10;51.40;;;;;;5096307;28;20066;-71
2022/01/18 03:10:35;;;;;;;3.50;1.23;;;22.00;52.20;;;;;;5095864;28;20055;-71
2022/01/18 03:13:02;;;;;;;6.10;1.30;;;22.10;49.70;;;;;;5096172;28;20087;-71
2022/01/18 03:15:28;;;;;;;2.72;0.85;;;21.90;49.70;;;;;;5096181;28;20040;-72
2022/01/18 03:17:54;;;;;;;3.00;1.23;;;22.00;52.50;;;;;;5095975;28;20041;-72
2022/01/18 03:20:22;;;;;;;3.55;1.70;;;22.00;51.10;;;;;;5096070;28;20037;-71
2022/01/18 03:22:50;;;;;;;3.10;1.80;;;22.00;51.60;;;;;;5095828;28;20096;-71
2022/01/18 03:25:29;;;;;;;1.75;1.08;;;22.00;51.60;;;;;;5095891;28;20032;-72
2022/01/18 03:28:04;;;;;;;5.78;1.50;;;22.00;51.30;;;;;;5096021;28;20049;-71
2022/01/18 03:30:36;;;;;;;4.75;1.63;;;21.80;51.10;;;;;;5095805;28;20048;-71
2022/01/18 03:33:05;;;;;;;3.42;1.08;;;21.90;50.60;;;;;;5095779;28;20124;-72
2022/01/18 03:35:31;;;;;;;4.28;1.15;;;21.70;51.70;;;;;;5095777;28;20061;-71
2022/01/18 03:37:58;;;;;;;3.38;1.10;;;21.80;51.60;;;;;;5095540;28;20063;-71
2022/01/18 03:40:25;;;;;;;2.92;1.30;;;21.80;50.80;;;;;;5096724;28;20100;-71
2022/01/18 03:42:52;;;;;;;4.28;1.17;;;21.70;50.50;;;;;;5099235;28;20047;-73
2022/01/18 03:45:25;;;;;;;3.30;1.70;;;21.80;50.80;;;;;;5098526;28;20068;-72
2022/01/18 03:47:54;;;;;;;4.32;1.10;;;21.70;48.70;;;;;;5099466;28;20097;-72
2022/01/18 03:50:20;;;;;;;2.75;0.95;;;21.70;51.30;;;;;;5099200;28;20052;-71
2022/01/18 03:52:47;;;;;;;3.33;1.17;;;21.90;52.90;;;;;;5099037;28;20041;-71
2022/01/18 03:55:16;;;;;;;3.92;1.33;;;21.80;50.50;;;;;;5099054;28;20056;-71
2022/01/18 03:57:42;;;;;;;4.05;1.00;;;21.90;51.20;;;;;;5099177;28;20048;-71
2022/01/18 04:00:13;;;;;;;3.33;1.00;;;22.00;51.50;;;;;;5098875;28;20036;-71
2022/01/18 04:02:40;;;;;;;2.30;1.20;;;21.80;52.20;;;;;;5099055;28;20096;-71
2022/01/18 04:05:07;;;;;;;1.50;0.93;;;21.90;52.10;;;;;;5099052;28;20033;-71
2022/01/18 04:07:33;;;;;;;1.23;0.50;;;21.90;53.80;;;;;;5099050;28;20049;-71
2022/01/18 04:10:00;;;;;;;4.05;0.95;;;21.80;50.50;;;;;;5099005;28;20052;-71
2022/01/18 04:12:26;;;;;;;1.20;0.60;;;21.80;49.70;;;;;;5098644;28;20066;-72
2022/01/18 04:14:54;;;;;;;2.83;0.95;;;21.80;52.10;;;;;;5098673;28;20075;-71
2022/01/18 04:28:26;;;;;;;4.47;0.60;;;21.80;49.80;;;;;;5098591;28;20043;-71
2022/01/18 04:30:52;;;;;;;0.57;0.57;;;21.70;52.00;;;;;;5098719;28;20051;-71
2022/01/18 04:33:19;;;;;;;0.98;0.55;;;21.70;51.10;;;;;;5098029;28;20057;-71
2022/01/18 04:35:46;;;;;;;1.65;0.73;;;21.80;52.10;;;;;;5098325;28;20057;-71
2022/01/18 04:38:12;;;;;;;5.45;1.30;;;21.90;51.30;;;;;;5098472;28;20040;-71
2022/01/18 04:40:42;;;;;;;3.05;0.70;;;21.80;52.70;;;;;;5098327;28;20040;-72
2022/01/18 04:48:35;;;;;;;2.67;1.20;;;21.70;50.00;;;;;;5098167;28;20116;-71
2022/01/18 04:51:04;;;;;;;1.23;0.82;;;21.50;49.40;;;;;;5063940;28;20028;-71
2022/01/18 04:53:36;;;;;;;1.15;1.02;;;21.40;51.10;;;;;;5081199;28;20067;-72
2022/01/18 04:56:07;;;;;;;7.60;1.60;;;21.30;50.30;;;;;;5098166;28;20040;-71
2022/01/18 04:58:34;;;;;;;6.25;1.70;;;21.20;50.90;;;;;;5098155;28;20048;-72
2022/01/18 05:01:03;;;;;;;3.75;1.50;;;21.10;49.10;;;;;;5098000;28;20036;-71
2022/01/18 05:03:30;;;;;;;4.43;1.42;;;21.00;43.00;;;;;;5097158;28;20036;-71
2022/01/18 05:06:00;;;;;;;2.47;1.27;;;20.70;42.10;;;;;;5097255;28;20124;-71
2022/01/18 05:08:26;;;;;;;4.50;0.82;;;20.60;48.50;;;;;;5079794;28;20032;-71
2022/01/18 05:10:57;;;;;;;1.50;1.40;;;20.60;47.10;;;;;;5079498;28;20033;-71
2022/01/18 05:19:07;;;;;;;4.03;1.05;;;20.60;51.60;;;;;;5096744;28;20111;-72
2022/01/18 05:24:23;;;;;;;3.40;1.52;;;21.60;56.90;;;;;;5096811;28;20051;-71
2022/01/18 05:26:50;;;;;;;1.40;1.05;;;22.00;56.10;;;;;;5097000;28;20040;-71
2022/01/18 05:29:16;;;;;;;17.77;1.60;;;21.80;58.20;;;;;;5095863;28;20044;-71
2022/01/18 05:31:43;;;;;;;3.42;1.42;;;21.90;64.40;;;;;;5096246;28;20075;-71
2022/01/18 05:34:10;;;;;;;9.27;1.20;;;21.80;56.10;;;;;;5096602;28;20045;-72
2022/01/18 05:36:36;;;;;;;4.28;1.13;;;21.60;53.70;;;;;;5096676;28;20050;-72
2022/01/18 05:39:04;;;;;;;1.55;0.85;;;21.50;54.70;;;;;;5096403;28;20056;-76
2022/01/18 05:41:30;;;;;;;2.78;1.30;;;21.50;57.30;;;;;;5096464;28;20378;-76
2022/01/18 05:43:57;;;;;;;7.63;1.25;;;21.80;54.80;;;;;;5096371;28;20040;-77
2022/01/18 05:46:24;;;;;;;4.22;1.60;;;21.90;51.20;;;;;;5096247;28;20060;-77
2022/01/18 05:48:50;;;;;;;5.20;1.52;;;22.00;48.90;;;;;;5096426;28;20040;-76
2022/01/18 05:51:16;;;;;;;3.22;1.45;;;22.20;46.90;;;;;;5096066;28;20036;-71
2022/01/18 05:53:43;;;;;;;3.53;1.40;;;22.10;39.90;;;;;;5096139;28;20032;-71
2022/01/18 05:56:12;;;;;;;4.70;1.52;;;21.80;39.50;;;;;;5096358;28;20096;-72
2022/01/18 05:58:41;;;;;;;2.30;1.80;;;21.60;42.00;;;;;;5096225;28;20044;-70
2022/01/18 06:01:07;;;;;;;1.27;1.08;;;21.60;47.20;;;;;;5095898;28;20028;-70
2022/01/18 06:03:40;;;;;;;3.00;1.40;;;21.70;43.90;;;;;;5094832;28;20047;-71
2022/01/18 06:08:50;;;;;;;2.05;1.52;;;21.90;42.60;;;;;;5086863;28;20036;-71
2022/01/18 06:11:16;;;;;;;3.55;1.05;;;21.90;38.20;;;;;;5093908;28;20044;-72
2022/01/18 06:13:43;;;;;;;6.75;2.15;;;21.90;38.30;;;;;;5091116;28;20063;-70
2022/01/18 06:16:09;;;;;;;1.20;0.75;;;21.80;41.50;;;;;;5094931;28;20043;-72
2022/01/18 06:18:35;;;;;;;2.15;1.40;;;21.90;38.70;;;;;;5095165;28;20103;-70
2022/01/18 06:21:01;;;;;;;5.70;1.80;;;22.00;36.70;;;;;;5095206;28;20037;-71
2022/01/18 06:23:28;;;;;;;3.47;1.92;;;22.00;36.80;;;;;;5095523;28;20036;-70
2022/01/18 06:25:54;;;;;;;3.55;1.73;;;22.10;37.90;;;;;;5094418;28;20033;-74
2022/01/18 06:28:20;;;;;;;1.10;0.90;;;22.10;35.80;;;;;;5095174;28;20071;-71
2022/01/18 06:30:46;;;;;;;2.17;1.33;;;22.30;34.50;;;;;;5095267;28;20048;-70
2022/01/18 06:33:12;;;;;;;2.42;1.55;;;22.20;34.30;;;;;;5094943;28;20072;-71
2022/01/18 06:35:38;;;;;;;4.00;1.80;;;22.30;37.00;;;;;;5095124;28;20040;-72
2022/01/18 06:38:04;;;;;;;2.90;1.35;;;22.40;47.10;;;;;;5095790;28;20075;-72
2022/01/18 06:40:31;;;;;;;4.82;1.30;;;22.40;48.70;;;;;;5095762;28;20041;-72
2022/01/18 06:42:57;;;;;;;2.03;1.65;;;22.30;47.80;;;;;;5095608;28;20036;-71
2022/01/18 06:45:24;;;;;;;2.08;1.42;;;22.40;49.80;;;;;;5095861;28;20097;-70
2022/01/18 06:47:50;;;;;;;6.40;1.55;;;22.40;51.60;;;;;;5095707;28;20037;-73
2022/01/18 06:50:16;;;;;;;5.47;1.58;;;22.30;50.40;;;;;;5095857;28;20087;-71
2022/01/18 06:52:43;;;;;;;4.68;1.73;;;22.40;50.90;;;;;;5095694;28;20044;-70
2022/01/18 06:55:12;;;;;;;11.35;1.80;;;22.30;48.40;;;;;;5095686;28;20075;-71
2022/01/18 06:57:38;;;;;;;3.53;2.38;;;22.30;47.40;;;;;;5095376;28;20044;-71
2022/01/18 07:00:06;;;;;;;2.80;1.75;;;22.20;51.40;;;;;;5095587;28;20123;-71
2022/01/18 07:02:32;;;;;;;2.92;1.63;;;22.20;51.80;;;;;;5095199;28;20041;-70
2022/01/18 07:04:59;;;;;;;1.50;0.95;;;22.10;51.90;;;;;;5096983;28;20045;-70
2022/01/18 07:07:25;;;;;;;3.47;0.77;;;22.30;50.20;;;;;;5095068;28;20051;-71
2022/01/18 07:09:51;;;;;;;4.18;1.17;;;22.20;51.70;;;;;;5095158;28;20036;-71
2022/01/18 07:12:18;;;;;;;3.33;1.55;;;22.40;49.80;;;;;;5095156;28;20041;-71
2022/01/18 07:14:45;;;;;;;2.42;1.45;;;22.20;51.60;;;;;;5095152;28;20041;-72
2022/01/18 07:17:11;;;;;;;4.72;2.40;;;22.30;50.10;;;;;;5098601;28;20048;-71
2022/01/18 07:19:38;;;;;;;4.70;1.85;;;22.30;49.50;;;;;;5098980;28;20039;-70
2022/01/18 07:22:05;;;;;;;3.78;1.90;;;22.20;51.60;;;;;;5098944;28;20101;-70
2022/01/18 07:24:43;;;;;;;1.75;1.15;;;22.00;53.70;;;;;;5081427;28;20048;-73
2022/01/18 07:27:12;;;;;;;4.43;1.33;;;22.00;52.20;;;;;;5097264;28;20032;-71
2022/01/18 07:29:41;;;;;;;3.22;1.50;;;22.10;53.50;;;;;;5098774;28;20036;-71
2022/01/18 07:32:07;;;;;;;1.13;0.93;;;22.20;51.90;;;;;;5098572;28;20524;-70
2022/01/18 07:34:38;;;;;;;5.00;1.63;;;22.10;52.20;;;;;;5098288;28;20036;-72
2022/01/18 07:37:05;;;;;;;2.20;1.65;;;21.90;49.70;;;;;;5098558;28;20132;-72
2022/01/18 07:39:31;;;;;;;3.15;1.20;;;22.00;52.00;;;;;;5098961;28;20052;-72
2022/01/18 07:41:56;;;;;;;2.92;1.70;;;22.00;53.30;;;;;;5098984;28;20040;-71
2022/01/18 07:44:24;;;;;;;3.60;1.88;;;22.00;49.50;;;;;;5098620;28;20049;-72
2022/01/18 07:46:50;;;;;;;2.47;1.63;;;22.00;52.80;;;;;;5098939;28;20104;-72
2022/01/18 07:49:15;;;;;;;6.90;1.83;;;21.90;53.30;;;;;;5098745;28;20054;-72
2022/01/18 07:51:41;;;;;;;2.85;0.80;;;22.00;50.20;;;;;;5098632;28;20037;-71
2022/01/18 07:54:08;;;;;;;4.25;1.15;;;21.80;54.40;;;;;;5098549;28;20045;-70
2022/01/18 07:56:34;;;;;;;5.50;1.85;;;21.70;55.00;;;;;;5081194;28;20044;-71
2022/01/18 07:59:00;;;;;;;5.20;1.73;;;21.70;52.20;;;;;;5098428;28;20104;-72
2022/01/18 08:01:26;;;;;;;2.90;1.40;;;21.70;53.80;;;;;;5098119;28;20037;-72
2022/01/18 08:03:54;;;;;;;2.13;1.13;;;21.60;54.80;;;;;;5098286;28;20055;-71
2022/01/18 08:06:20;;;;;;;1.42;1.10;;;21.80;53.10;;;;;;5098344;28;20041;-72
2022/01/18 08:08:46;;;;;;;4.68;1.63;;;21.80;53.00;;;;;;5098397;28;20071;-71
2022/01/18 08:11:12;;;;;;;1.17;1.05;;;21.70;53.30;;;;;;5097319;28;20036;-71
2022/01/18 08:13:39;;;;;;;3.22;1.20;;;21.60;54.30;;;;;;5098020;28;20031;-70
2022/01/18 08:16:46;;;;;;;2.25;1.08;;;21.60;53.60;;;;;;5098242;28;20433;-70
2022/01/18 08:19:06;;;;;;;6.97;2.38;;;21.60;52.00;;;;;;5097477;28;20048;-70
2022/01/18 08:21:32;;;;;;;4.07;1.90;;;21.60;51.10;;;;;;5098008;28;20064;-71
2022/01/18 08:23:59;;;;;;;1.88;1.00;;;21.80;51.10;;;;;;5097856;28;20036;-72
2022/01/18 08:26:25;;;;;;;6.43;2.25;;;21.70;54.80;;;;;;5097510;28;20042;-71
2022/01/18 08:28:51;;;;;;;9.98;1.77;;;21.60;50.60;;;;;;5097428;28;20096;-72
2022/01/18 08:31:18;;;;;;;3.47;1.75;;;21.60;52.50;;;;;;5097706;28;20041;-70
2022/01/18 08:33:44;;;;;;;3.67;0.68;;;21.60;54.00;;;;;;5097628;28;20049;-71
2022/01/18 08:36:10;;;;;;;5.07;1.10;;;21.80;54.20;;;;;;5097724;28;20066;-70
2022/01/18 08:38:37;;;;;;;7.93;1.55;;;21.80;53.30;;;;;;5097453;28;20101;-71
2022/01/18 08:41:04;;;;;;;3.67;1.30;;;21.80;51.90;;;;;;5097230;28;20104;-71
2022/01/18 08:43:31;;;;;;;0.55;0.45;;;21.80;50.90;;;;;;5097351;28;20067;-71
2022/01/18 08:46:01;;;;;;;2.80;1.52;;;21.60;54.30;;;;;;5097698;28;20067;-71
2022/01/18 08:48:27;;;;;;;7.45;2.20;;;21.60;55.90;;;;;;5097459;28;20037;-70
2022/01/18 08:50:54;;;;;;;7.03;1.75;;;21.70;51.70;;;;;;5097181;28;20056;-70
2022/01/18 08:53:22;;;;;;;2.70;1.33;;;21.80;52.60;;;;;;5096134;28;20036;-71
2022/01/18 08:55:48;;;;;;;4.00;2.05;;;21.70;55.10;;;;;;5097477;28;20036;-70
2022/01/18 08:58:15;;;;;;;4.32;1.30;;;21.80;57.50;;;;;;5096942;28;20157;-70
2022/01/18 09:00:41;;;;;;;4.68;0.85;;;21.70;46.50;;;;;;5079620;28;20052;-69
2022/01/18 09:03:10;;;;;;;1.50;0.88;;;21.60;52.90;;;;;;5097022;28;20036;-70
2022/01/18 09:05:38;;;;;;;7.88;1.45;;;21.70;50.90;;;;;;5097166;28;20037;-70
2022/01/18 09:08:07;;;;;;;7.53;1.55;;;21.80;43.40;;;;;;5096930;28;20050;-70
2022/01/18 09:10:34;;;;;;;4.03;0.65;;;21.60;31.90;;;;;;5096930;28;20047;-69
2022/01/18 09:13:01;;;;;;;3.33;1.23;;;21.40;32.90;;;;;;5097123;28;20048;-69
2022/01/18 09:15:27;;;;;;;4.35;1.10;;;21.10;34.40;;;;;;5081023;28;20136;-69
2022/01/18 09:17:53;;;;;;;3.00;0.95;;;21.10;35.40;;;;;;5076797;28;20096;-70
2022/01/18 09:20:20;;;;;;;1.88;1.10;;;20.80;34.60;;;;;;5092561;28;20092;-70
2022/01/18 09:22:52;;;;;;;2.92;0.95;;;20.80;37.70;;;;;;5076552;28;20045;-70
2022/01/18 09:25:24;;;;;;;6.00;1.80;;;20.80;39.10;;;;;;5075730;28;20041;-70
2022/01/18 09:27:50;;;;;;;7.80;1.58;;;20.80;38.90;;;;;;5076730;28;20040;-70
2022/01/18 09:30:17;;;;;;;2.05;1.35;;;21.00;39.30;;;;;;5076644;28;20067;-70
2022/01/18 09:32:47;;;;;;;3.80;1.55;;;21.00;42.00;;;;;;5076482;28;20036;-68
2022/01/18 09:35:15;;;;;;;3.97;1.42;;;21.10;39.40;;;;;;5076559;28;20049;-70
2022/01/18 09:37:42;;;;;;;9.02;4.40;;;21.10;42.30;;;;;;5075973;28;20067;-69
2022/01/18 09:40:09;;;;;;;4.00;3.30;;;21.20;39.90;;;;;;5076178;28;20045;-70
2022/01/18 09:42:39;;;;;;;3.85;2.35;;;21.40;35.60;;;;;;5074964;28;20033;-69
2022/01/18 09:45:07;;;;;;;3.60;1.33;;;21.50;35.60;;;;;;5076100;28;20045;-70
2022/01/18 09:47:35;;;;;;;3.08;1.08;;;21.60;37.70;;;;;;5076373;28;20036;-70
2022/01/18 09:50:01;;;;;;;3.38;1.60;;;21.70;49.00;;;;;;5075966;28;20156;-71
2022/01/18 09:52:27;;;;;;;9.75;6.13;;;21.90;50.80;;;;;;5076231;28;20033;-70
2022/01/18 09:54:54;;;;;;;7.30;2.40;;;22.20;41.30;;;;;;5076984;28;20033;-70
2022/01/18 09:57:20;;;;;;;4.78;1.85;;;22.10;37.40;;;;;;5080617;28;20051;-71
2022/01/18 09:59:46;;;;;;;2.28;1.98;;;22.10;35.30;;;;;;5096084;28;20036;-71
2022/01/18 10:02:12;;;;;;;8.52;2.38;;;22.10;42.10;;;;;;5095583;28;20043;-71
2022/01/18 10:04:41;;;;;;;4.95;1.75;;;22.10;46.20;;;;;;5095349;28;20038;-71
2022/01/18 10:07:07;;;;;;;2.58;1.55;;;22.00;46.00;;;;;;5096203;28;20044;-70
2022/01/18 10:09:34;;;;;;;1.85;0.90;;;22.10;50.70;;;;;;5095422;28;20040;-71
2022/01/18 10:12:13;;;;;;;2.78;1.33;;;22.10;48.40;;;;;;5094395;28;20096;-71
2022/01/18 10:15:00;;;;;;;3.08;1.10;;;22.20;48.10;;;;;;5110541;28;20047;-73
2022/01/18 10:17:38;;;;;;;1.60;1.30;;;22.10;42.60;;;;;;5093889;28;20032;-74
2022/01/18 10:20:10;;;;;;;3.22;1.65;;;22.20;36.10;;;;;;5094516;28;20040;-70
2022/01/18 10:22:44;;;;;;;6.55;1.98;;;22.20;34.80;;;;;;5095444;28;20029;-70
2022/01/18 10:25:15;;;;;;;2.33;1.13;;;22.10;33.30;;;;;;5095750;28;20047;-69
2022/01/18 10:27:41;;;;;;;2.67;1.33;;;22.20;33.10;;;;;;5095916;28;20055;-71
2022/01/18 10:30:14;;;;;;;11.52;2.80;;;22.10;32.10;;;;;;5096047;28;20040;-70
2022/01/18 10:32:42;;;;;;;4.10;1.70;;;22.00;34.10;;;;;;5095707;28;20056;-69
2022/01/18 10:35:10;;;;;;;1.40;1.15;;;22.10;34.20;;;;;;5095470;28;20032;-70
2022/01/18 10:37:43;;;;;;;2.88;1.30;;;22.00;34.60;;;;;;5095742;28;20036;-70
2022/01/18 10:40:17;;;;;;;4.38;1.90;;;22.10;34.10;;;;;;5095993;28;20056;-70
2022/01/18 10:42:47;;;;;;;3.45;1.77;;;22.10;35.10;;;;;;5095990;28;20051;-70
2022/01/18 10:45:27;;;;;;;4.00;1.90;;;22.20;35.20;;;;;;5095756;28;20028;-70
2022/01/18 10:48:12;;;;;;;2.35;1.65;;;22.30;35.70;;;;;;5078442;28;20054;-70
2022/01/18 10:50:42;;;;;;;4.40;2.05;;;22.30;32.50;;;;;;5098544;28;20113;-71
2022/01/18 10:53:21;;;;;;;3.90;1.85;;;22.30;32.20;;;;;;5099332;28;20425;-71
2022/01/18 10:55:50;;;;;;;4.72;1.83;;;22.30;33.90;;;;;;5115979;28;20092;-70
2022/01/18 10:58:20;;;;;;;5.30;1.88;;;22.20;32.50;;;;;;5099747;28;20055;-71
2022/01/18 11:00:46;;;;;;;2.25;1.17;;;22.30;35.10;;;;;;5082011;28;20032;-71
2022/01/18 11:03:12;;;;;;;4.85;2.60;;;22.30;36.20;;;;;;5099554;28;20036;-71
2022/01/18 11:05:43;;;;;;;3.47;1.80;;;22.40;37.80;;;;;;5099373;28;20043;-70
2022/01/18 11:08:09;;;;;;;3.58;1.77;;;22.50;38.70;;;;;;5099250;28;20090;-69
2022/01/18 11:10:37;;;;;;;3.00;1.30;;;22.70;40.50;;;;;;5099424;28;20056;-70
2022/01/18 11:13:11;;;;;;;4.85;2.13;;;23.10;43.80;;;;;;5099012;28;20044;-71
2022/01/18 11:15:45;;;;;;;5.78;1.77;;;23.20;46.70;;;;;;5099108;28;20052;-71
2022/01/18 11:18:28;;;;;;;2.67;1.67;;;23.40;44.90;;;;;;5099256;28;20048;-71
2022/01/18 11:20:56;;;;;;;3.20;1.42;;;23.30;46.50;;;;;;5099145;28;20052;-72
2022/01/18 11:23:24;;;;;;;5.25;2.58;;;23.00;47.70;;;;;;5099260;28;20051;-72
2022/01/18 11:25:52;;;;;;;5.05;1.65;;;23.10;44.60;;;;;;5099022;28;20067;-70
2022/01/18 11:28:18;;;;;;;4.28;1.67;;;23.00;47.40;;;;;;5098942;28;20036;-70
2022/01/18 11:30:46;;;;;;;4.75;1.58;;;22.90;46.00;;;;;;5099026;28;20040;-71
2022/01/18 11:33:20;;;;;;;4.70;2.30;;;22.80;48.30;;;;;;5098862;28;20079;-70
2022/01/18 11:36:00;;;;;;;2.95;1.67;;;22.70;48.40;;;;;;5098960;28;20083;-70
2022/01/18 11:38:54;;;;;;;2.65;1.25;;;22.40;48.00;;;;;;5081640;28;20056;-71
2022/01/18 11:41:24;;;;;;;1.80;1.23;;;22.40;52.30;;;;;;5099022;28;20036;-70
2022/01/18 11:43:51;;;;;;;2.30;1.50;;;22.30;52.60;;;;;;5098798;28;20064;-70
2022/01/18 11:46:29;;;;;;;2.22;1.00;;;22.30;50.50;;;;;;5098122;28;20040;-71
2022/01/18 11:49:27;;;;;;;6.63;0.88;;;22.30;51.60;;;;;;5098765;28;20044;-70
2022/01/18 11:52:06;;;;;;;1.88;1.15;;;22.30;49.90;;;;;;5097963;28;20119;-70
2022/01/18 11:54:43;;;;;;;5.93;1.85;;;22.10;46.00;;;;;;5098574;28;20044;-70
2022/01/18 11:57:18;;;;;;;2.92;1.20;;;22.10;50.10;;;;;;5098418;28;20070;-70
2022/01/18 11:59:45;;;;;;;4.65;1.63;;;22.00;50.00;;;;;;5081105;28;20033;-69
2022/01/18 12:02:24;;;;;;;3.25;0.95;;;22.00;47.40;;;;;;5097546;28;20096;-70
2022/01/18 12:04:54;;;;;;;5.07;1.65;;;22.00;49.30;;;;;;5097651;28;20040;-69
2022/01/18 12:07:36;;;;;;;4.97;1.90;;;22.10;51.20;;;;;;5098359;28;20050;-68
2022/01/18 12:10:20;;;;;;;1.77;1.05;;;22.00;48.20;;;;;;5098184;28;20045;-68
2022/01/18 12:12:48;;;;;;;9.57;2.15;;;22.00;51.90;;;;;;5098335;28;20041;-70
2022/01/18 12:15:21;;;;;;;1.75;1.20;;;22.00;48.00;;;;;;5098234;28;20093;-71
2022/01/18 12:17:48;;;;;;;1.00;0.77;;;22.00;52.60;;;;;;5098024;28;20040;-70
2022/01/18 12:20:35;;;;;;;5.35;1.65;;;22.00;50.10;;;;;;5097941;28;20091;-70
2022/01/18 12:23:04;;;;;;;3.50;1.50;;;22.10;51.20;;;;;;5096697;28;20028;-70
2022/01/18 12:26:34;;;;;;;3.17;1.27;;;22.00;50.40;;;;;;5097850;28;20048;-69
2022/01/18 12:28:47;;;;;;;2.30;0.93;;;22.00;47.60;;;;;;5090753;28;20036;-69
2022/01/18 12:32:04;;;;;;;4.65;1.73;;;22.00;50.50;;;;;;5097773;28;20063;-69
2022/01/18 12:34:31;;;;;;;4.53;1.02;;;22.00;46.70;;;;;;5097839;28;20048;-69
2022/01/18 12:37:07;;;;;;;1.88;0.82;;;22.10;49.80;;;;;;5080593;28;20104;-69
2022/01/18 12:45:11;;;;;;;6.88;1.70;;;21.80;47.90;;;;;;5097434;28;20040;-69
2022/01/18 12:47:42;;;;;;;10.25;1.40;;;21.70;49.40;;;;;;5097527;28;20036;-70
2022/01/18 12:50:10;;;;;;;5.60;1.23;;;21.80;50.50;;;;;;5097641;28;20369;-69
2022/01/18 12:52:55;;;;;;;6.85;1.63;;;21.80;50.50;;;;;;5096697;28;20032;-71
2022/01/18 12:55:35;;;;;;;6.05;1.30;;;22.00;50.60;;;;;;5080177;28;20036;-70
2022/01/18 12:58:27;;;;;;;10.35;1.50;;;22.10;51.20;;;;;;5063662;28;20044;-69
2022/01/18 13:00:55;;;;;;;2.08;1.50;;;22.00;49.50;;;;;;5089444;28;20033;-70
2022/01/18 13:03:44;;;;;;;1.48;1.05;;;22.00;51.10;;;;;;5097485;28;20044;-69
2022/01/18 13:06:19;;;;;;;2.72;1.00;;;21.90;52.40;;;;;;5079778;28;20062;-69
2022/01/18 13:08:46;;;;;;;5.05;1.40;;;22.10;51.30;;;;;;5097282;28;20060;-69
2022/01/18 13:11:18;;;;;;;3.58;1.52;;;22.20;50.70;;;;;;5097212;28;20044;-70
2022/01/18 13:13:52;;;;;;;9.15;1.85;;;22.20;50.20;;;;;;5078578;28;20054;-70
2022/01/18 13:27:13;;;;;;;3.67;0.82;;;22.20;51.40;;;;;;5096492;28;20037;-71
2022/01/18 13:29:39;;;;;;;5.38;0.85;;;22.10;50.80;;;;;;5096679;28;20049;-70
2022/01/18 13:32:15;;;;;;;6.35;1.10;;;22.10;49.60;;;;;;5096610;28;20067;-70
2022/01/18 13:34:44;;;;;;;2.63;1.40;;;22.00;52.20;;;;;;5096654;28;20040;-70
2022/01/18 13:37:13;;;;;;;1.55;0.70;;;22.00;51.70;;;;;;5096683;28;20044;-70
2022/01/18 13:39:50;;;;;;;4.53;1.40;;;22.10;51.60;;;;;;5096611;28;20101;-70
2022/01/18 13:42:25;;;;;;;3.97;1.10;;;22.00;51.10;;;;;;5095609;28;20036;-70
2022/01/18 13:45:11;;;;;;;1.50;1.23;;;21.90;52.60;;;;;;5096391;28;20051;-70
2022/01/18 13:47:49;;;;;;;2.00;1.13;;;22.00;52.10;;;;;;5096419;28;20040;-70
2022/01/18 13:50:40;;;;;;;2.20;1.48;;;21.90;52.70;;;;;;5095988;28;20048;-70
2022/01/18 13:53:11;;;;;;;1.70;0.93;;;21.80;51.60;;;;;;5096155;28;20036;-70
2022/01/18 13:55:48;;;;;;;2.60;1.10;;;21.90;53.60;;;;;;5079019;28;20062;-69
2022/01/18 13:58:23;;;;;;;2.53;1.48;;;21.70;54.40;;;;;;5096465;28;20051;-71
2022/01/18 14:00:49;;;;;;;1.55;1.00;;;21.70;51.70;;;;;;5078545;28;20035;-70
2022/01/18 14:03:38;;;;;;;6.60;1.42;;;21.70;52.50;;;;;;5081417;28;20036;-71
2022/01/18 14:06:10;;;;;;;1.65;1.08;;;21.70;54.50;;;;;;5094179;28;20028;-70
2022/01/18 14:08:41;;;;;;;3.72;1.85;;;21.90;53.50;;;;;;5096397;28;20050;-70
2022/01/18 14:11:10;;;;;;;2.20;1.48;;;22.10;56.20;;;;;;5096167;28;20066;-69
2022/01/18 14:13:38;;;;;;;3.20;2.00;;;22.30;53.90;;;;;;5095981;28;20048;-71
2022/01/18 14:16:29;;;;;;;2.75;1.25;;;22.10;53.80;;;;;;5078446;28;20583;-73
2022/01/18 14:19:08;;;;;;;4.00;1.75;;;22.20;51.10;;;;;;5096053;28;20082;-69
2022/01/18 14:21:49;;;;;;;2.10;1.65;;;22.00;52.90;;;;;;5095794;28;20031;-69
2022/01/18 14:24:21;;;;;;;1.70;1.38;;;22.00;51.40;;;;;;5095354;28;20036;-71
2022/01/18 14:26:53;;;;;;;4.45;1.52;;;22.00;53.50;;;;;;5094868;28;20062;-69